Terminal Aerodrome Forecast
Issued by NWS Sioux Falls, SD

Home | Current Version | Previous Version | Graphics & Text | Print | Product List | Glossary On
Versions: 1 2 3 4 5 6 7 8 9 10 11 12 13 14 15 16
000
FTUS43 KFSD 190816 AAA
TAFFSD
TAF AMD
KFSD 190816Z 1908/2006 36011G18KT P6SM OVC011
     FM190840 36012G20KT P6SM OVC008
     FM191400 01013G20KT P6SM OVC015
     FM191800 04013G22KT P6SM OVC020
     FM192130 03013KT 6SM -SHRA OVC035
     FM200000 04014KT P6SM OVC050=

USA.gov is the U.S. government's official web portal to all federal, state and local government web resources and services.